createdAt,value
2022-10-09T00:01:43.321Z,14.68
2022-10-09T00:04:12.565Z,14.67
2022-10-09T00:06:43.124Z,14.65
2022-10-09T00:09:12.965Z,14.77
2022-10-09T00:11:42.172Z,14.80
2022-10-09T00:14:11.366Z,14.89
2022-10-09T00:16:40.543Z,14.85
2022-10-09T00:19:09.820Z,14.84
2022-10-09T00:21:38.956Z,14.89
2022-10-09T00:24:10.467Z,14.82
2022-10-09T00:26:40.994Z,15.00
2022-10-09T00:29:10.173Z,15.01
2022-10-09T00:31:39.357Z,15.02
2022-10-09T00:34:08.607Z,15.00
2022-10-09T00:36:37.817Z,14.96
2022-10-09T00:39:08.292Z,14.91
2022-10-09T00:41:37.848Z,14.93
2022-10-09T00:44:51.650Z,14.94
2022-10-09T00:47:27.958Z,14.95
2022-10-09T00:50:01.327Z,14.91
2022-10-09T00:52:31.185Z,14.96
2022-10-09T00:55:03.184Z,14.94
2022-10-09T00:57:34.474Z,14.97
2022-10-09T01:00:09.407Z,15.00
2022-10-09T01:02:38.812Z,15.00
2022-10-09T01:05:10.484Z,15.03
2022-10-09T01:07:49.314Z,15.05
2022-10-09T01:10:33.587Z,15.06
2022-10-09T01:13:12.904Z,15.03
2022-10-09T01:15:51.021Z,15.03
2022-10-09T01:18:29.783Z,15.00
2022-10-09T01:21:04.048Z,14.98
2022-10-09T01:24:14.712Z,14.96
2022-10-09T01:27:01.375Z,14.91
2022-10-09T01:29:42.419Z,14.83
2022-10-09T01:32:16.455Z,14.85
2022-10-09T01:34:47.309Z,14.73
2022-10-09T01:37:18.329Z,14.81
2022-10-09T01:39:49.907Z,14.87
2022-10-09T01:42:24.346Z,14.80
2022-10-09T01:44:53.627Z,14.92
2022-10-09T01:47:23.779Z,14.95
2022-10-09T01:50:00.177Z,14.95
2022-10-09T01:52:42.785Z,14.85
2022-10-09T01:55:28.965Z,14.87
2022-10-09T01:58:07.019Z,14.90
2022-10-09T02:00:44.272Z,14.89
2022-10-09T02:03:16.728Z,14.93
2022-10-09T02:05:49.083Z,14.81
2022-10-09T02:08:22.164Z,14.81
2022-10-09T02:10:57.750Z,14.74
2022-10-09T02:13:29.076Z,14.69
2022-10-09T02:16:05.691Z,14.68
2022-10-09T02:18:42.011Z,14.71
2022-10-09T02:21:16.177Z,14.69
2022-10-09T02:23:48.976Z,14.73
2022-10-09T02:26:18.432Z,14.71
2022-10-09T02:28:49.045Z,14.81
2022-10-09T02:31:25.061Z,14.80
2022-10-09T02:33:58.435Z,14.78
2022-10-09T02:36:28.339Z,14.77
2022-10-09T02:38:58.752Z,14.67
2022-10-09T02:41:29.221Z,14.80
2022-10-09T02:44:00.228Z,14.76
2022-10-09T02:46:29.805Z,14.76
2022-10-09T02:48:58.990Z,14.78
2022-10-09T02:51:28.713Z,14.69
2022-10-09T02:53:59.706Z,14.76
2022-10-09T02:56:29.378Z,14.80
2022-10-09T02:59:00.078Z,14.76
2022-10-09T03:01:29.328Z,14.83
2022-10-09T03:03:58.453Z,14.78
2022-10-09T03:06:30.498Z,14.87
2022-10-09T03:08:59.641Z,14.90
2022-10-09T03:11:28.940Z,14.83
2022-10-09T03:13:59.569Z,14.96
2022-10-09T03:16:29.645Z,14.95
2022-10-09T03:19:00.206Z,14.90
2022-10-09T03:21:29.955Z,14.94
2022-10-09T03:23:59.193Z,14.83
2022-10-09T03:26:29.638Z,14.82
2022-10-09T03:29:00.276Z,14.90
2022-10-09T03:34:18.580Z,14.86
2022-10-09T03:36:47.736Z,14.88
2022-10-09T03:39:17.114Z,14.92
2022-10-09T03:41:46.250Z,14.94
2022-10-09T03:44:16.756Z,14.91
2022-10-09T03:46:46.816Z,14.97
2022-10-09T03:49:16.762Z,14.96
2022-10-09T03:51:45.935Z,14.97
2022-10-09T03:54:15.149Z,15.06
2022-10-09T03:56:44.823Z,15.13
2022-10-09T03:59:15.586Z,15.15
2022-10-09T04:01:44.794Z,15.11
2022-10-09T04:04:14.037Z,15.21
2022-10-09T04:06:43.263Z,15.20
2022-10-09T04:09:12.392Z,15.10
2022-10-09T04:11:41.626Z,15.21
2022-10-09T04:14:10.910Z,15.13
2022-10-09T04:16:41.516Z,15.10
2022-10-09T04:19:12.201Z,15.07
2022-10-09T04:21:41.366Z,15.05
2022-10-09T04:24:10.530Z,14.91
2022-10-09T04:26:39.695Z,14.89
2022-10-09T04:29:08.984Z,14.76
2022-10-09T04:31:38.180Z,14.78
2022-10-09T04:34:08.837Z,14.79
2022-10-09T04:36:38.199Z,14.67
2022-10-09T04:39:07.722Z,14.70
2022-10-09T04:41:38.534Z,14.61
2022-10-09T04:44:08.028Z,14.54
2022-10-09T04:46:37.337Z,14.60
2022-10-09T04:49:07.947Z,14.60
2022-10-09T04:51:37.194Z,14.65
2022-10-09T04:54:06.646Z,14.64
2022-10-09T04:56:35.957Z,14.63
2022-10-09T04:59:05.340Z,14.69
2022-10-09T05:01:38.316Z,14.72
2022-10-09T05:04:09.972Z,14.71
2022-10-09T05:06:39.120Z,14.81
2022-10-09T05:09:08.206Z,14.81
2022-10-09T05:11:42.332Z,14.89
2022-10-09T05:14:12.228Z,14.79
2022-10-09T05:17:08.517Z,14.89
2022-10-09T05:19:32.200Z,15.00
2022-10-09T05:22:01.796Z,14.95
2022-10-09T05:24:31.088Z,14.98
2022-10-09T05:27:00.273Z,14.95
2022-10-09T05:29:29.431Z,14.95
2022-10-09T05:31:58.590Z,14.93
2022-10-09T05:34:27.826Z,15.11
2022-10-09T05:36:58.378Z,15.11
2022-10-09T05:39:27.544Z,15.11
2022-10-09T05:41:56.647Z,14.98
2022-10-09T05:44:26.132Z,15.15
2022-10-09T05:46:55.447Z,15.20
2022-10-09T05:49:25.057Z,15.12
2022-10-09T05:51:54.737Z,15.23
2022-10-09T05:54:25.306Z,15.20
2022-10-09T05:56:54.401Z,15.13
2022-10-09T05:59:23.539Z,14.99
2022-10-09T06:01:54.942Z,14.98
2022-10-09T06:04:26.212Z,14.88
2022-10-09T06:06:55.477Z,15.07
2022-10-09T06:09:27.483Z,14.93
2022-10-09T06:11:56.980Z,15.08
2022-10-09T06:14:26.215Z,15.01
2022-10-09T06:16:55.420Z,15.14
2022-10-09T06:19:24.629Z,15.17
2022-10-09T06:21:53.740Z,15.26
2022-10-09T06:24:29.144Z,15.23
2022-10-09T06:26:59.425Z,15.23
2022-10-09T06:29:30.171Z,15.31
2022-10-09T06:31:59.435Z,15.39
2022-10-09T06:34:28.741Z,15.37
2022-10-09T06:36:57.851Z,15.48
2022-10-09T06:39:28.451Z,15.45
2022-10-09T06:41:57.621Z,15.56
2022-10-09T06:44:47.063Z,15.63
2022-10-09T06:47:16.418Z,15.64
2022-10-09T06:49:45.572Z,15.62
2022-10-09T06:52:14.691Z,15.48
2022-10-09T06:54:45.250Z,15.32
2022-10-09T06:57:14.454Z,15.42
2022-10-09T06:59:43.574Z,15.52
2022-10-09T07:02:13.024Z,15.53
2022-10-09T07:04:42.248Z,15.51
2022-10-09T07:07:11.473Z,15.52
2022-10-09T07:09:40.619Z,15.39
2022-10-09T07:12:11.109Z,15.46
2022-10-09T07:14:40.303Z,15.45
2022-10-09T07:17:10.041Z,15.41
2022-10-09T07:19:39.403Z,15.37
2022-10-09T07:22:11.641Z,15.39
2022-10-09T07:24:40.886Z,15.35
2022-10-09T07:27:11.418Z,15.15
2022-10-09T07:29:40.571Z,15.34
2022-10-09T07:32:10.634Z,15.36
2022-10-09T07:34:39.966Z,15.43
2022-10-09T07:37:09.151Z,15.38
2022-10-09T07:39:42.816Z,15.34
2022-10-09T07:42:15.347Z,15.25
2022-10-09T07:44:44.561Z,15.45
2022-10-09T07:47:13.691Z,15.44
2022-10-09T07:49:42.957Z,15.42
2022-10-09T07:52:12.086Z,15.55
2022-10-09T07:54:41.218Z,15.60
2022-10-09T07:57:10.382Z,15.65
2022-10-09T07:59:41.309Z,15.73
2022-10-09T08:02:10.766Z,15.80
2022-10-09T08:04:40.078Z,15.76
2022-10-09T08:07:09.596Z,15.90
2022-10-09T08:09:39.707Z,15.74
2022-10-09T08:12:08.893Z,16.00
2022-10-09T08:14:38.012Z,16.23
2022-10-09T08:17:08.608Z,16.30
2022-10-09T08:19:37.893Z,16.28
2022-10-09T08:22:07.184Z,16.36
2022-10-09T08:24:36.468Z,16.39
2022-10-09T08:27:06.132Z,16.41
2022-10-09T08:29:40.030Z,16.34
2022-10-09T08:32:11.011Z,16.29
2022-10-09T08:34:40.327Z,16.23
2022-10-09T08:37:09.464Z,16.29
2022-10-09T08:39:38.683Z,16.16
2022-10-09T08:42:08.483Z,16.21
2022-10-09T08:44:45.900Z,16.23
2022-10-09T08:47:23.344Z,16.20
2022-10-09T08:49:58.754Z,16.29
2022-10-09T08:52:39.904Z,16.32
2022-10-09T08:55:21.580Z,16.18
2022-10-09T08:57:54.093Z,16.06
2022-10-09T09:00:28.298Z,16.11
2022-10-09T09:03:35.182Z,16.16
2022-10-09T09:06:10.925Z,16.22
2022-10-09T09:08:49.726Z,16.26
2022-10-09T09:11:28.270Z,16.32
2022-10-09T09:14:12.696Z,16.24
2022-10-09T09:16:51.730Z,16.28
2022-10-09T09:19:53.935Z,16.25
2022-10-09T09:22:24.656Z,16.27
2022-10-09T09:24:55.765Z,16.23
2022-10-09T09:27:31.785Z,16.18
2022-10-09T09:30:17.150Z,16.10
2022-10-09T09:32:56.712Z,16.20
2022-10-09T09:35:35.541Z,16.23
2022-10-09T09:38:04.932Z,16.21
2022-10-09T09:40:38.125Z,16.19
2022-10-09T09:43:18.863Z,16.23
2022-10-09T09:45:49.168Z,16.34
2022-10-09T09:48:27.661Z,16.28
2022-10-09T09:51:16.058Z,16.50
2022-10-09T09:53:51.112Z,16.45
2022-10-09T09:56:20.770Z,16.58
2022-10-09T09:58:54.014Z,16.59
2022-10-09T10:01:26.862Z,16.67
2022-10-09T10:03:58.626Z,16.71
2022-10-09T10:06:32.402Z,16.82
2022-10-09T10:09:07.169Z,16.83
2022-10-09T10:11:36.408Z,16.97
2022-10-09T10:14:10.195Z,16.96
2022-10-09T10:16:41.130Z,16.95
2022-10-09T10:19:23.948Z,17.03
2022-10-09T10:22:00.538Z,16.97
2022-10-09T10:24:36.452Z,17.18
2022-10-09T10:27:15.161Z,17.23
2022-10-09T10:29:47.716Z,17.25
2022-10-09T10:32:22.901Z,17.32
2022-10-09T10:34:58.073Z,17.47
2022-10-09T10:37:41.473Z,17.44
2022-10-09T10:40:19.377Z,17.53
2022-10-09T10:43:02.735Z,17.50
2022-10-09T10:45:39.162Z,17.67
2022-10-09T10:48:13.738Z,17.68
2022-10-09T10:50:49.832Z,17.71
2022-10-09T10:53:35.183Z,17.86
2022-10-09T10:56:11.310Z,17.73
2022-10-09T10:58:50.647Z,17.87
2022-10-09T11:01:34.359Z,17.95
2022-10-09T11:04:34.626Z,18.03
2022-10-09T11:07:17.872Z,18.16
2022-10-09T11:10:01.378Z,18.25
2022-10-09T11:12:53.524Z,17.99
2022-10-09T11:15:37.910Z,18.29
2022-10-09T11:18:25.447Z,18.22
2022-10-09T11:21:14.528Z,18.07
2022-10-09T11:24:06.799Z,17.95
2022-10-09T11:26:49.724Z,17.74
2022-10-09T11:29:23.453Z,17.59
2022-10-09T11:31:58.575Z,17.59
2022-10-09T11:34:34.979Z,17.34
2022-10-09T11:37:09.194Z,17.32
2022-10-09T11:39:39.945Z,17.27
2022-10-09T11:42:14.214Z,17.15
2022-10-09T11:44:50.341Z,17.06
2022-10-09T11:47:26.555Z,17.14
2022-10-09T11:50:21.098Z,17.06
2022-10-09T11:53:00.783Z,16.92
2022-10-09T11:55:32.383Z,16.73
2022-10-09T11:58:24.274Z,16.72
2022-10-09T12:00:56.868Z,16.64
2022-10-09T12:03:33.583Z,16.46
2022-10-09T12:06:13.914Z,16.65
2022-10-09T12:08:54.276Z,16.47
2022-10-09T12:11:25.216Z,16.40
2022-10-09T12:14:00.156Z,16.57
2022-10-09T12:16:48.279Z,16.55
2022-10-09T12:19:23.386Z,16.36
2022-10-09T12:22:00.868Z,16.51
2022-10-09T12:24:34.986Z,16.45
2022-10-09T12:27:06.146Z,16.50
2022-10-09T12:29:46.309Z,16.53
2022-10-09T12:32:24.601Z,16.50
2022-10-09T12:34:55.185Z,16.26
2022-10-09T12:37:35.204Z,16.48
2022-10-09T12:40:17.129Z,16.64
2022-10-09T12:42:47.660Z,16.69
2022-10-09T12:45:22.590Z,16.62
2022-10-09T12:47:52.588Z,16.75
2022-10-09T12:50:28.310Z,16.86
2022-10-09T12:53:00.994Z,16.97
2022-10-09T12:55:33.651Z,17.07
2022-10-09T12:58:05.528Z,16.97
2022-10-09T13:00:37.337Z,17.11
2022-10-09T13:03:06.616Z,17.07
2022-10-09T13:05:40.777Z,16.87
2022-10-09T13:08:27.020Z,16.89
2022-10-09T13:10:56.827Z,16.97
2022-10-09T13:13:29.338Z,16.95
2022-10-09T13:16:06.544Z,17.17
2022-10-09T13:18:36.221Z,17.40
2022-10-09T13:21:22.405Z,17.66
2022-10-09T13:23:52.009Z,17.63
2022-10-09T13:26:28.362Z,17.59
2022-10-09T13:29:02.358Z,17.77
2022-10-09T13:31:34.061Z,18.01
2022-10-09T13:34:12.989Z,17.98
2022-10-09T13:36:42.565Z,17.85
2022-10-09T13:39:15.843Z,17.81
2022-10-09T13:41:46.292Z,17.79
2022-10-09T13:44:15.515Z,17.73
2022-10-09T13:46:46.026Z,17.55
2022-10-09T13:49:15.478Z,17.47
2022-10-09T13:51:44.930Z,17.29
2022-10-09T13:54:14.365Z,17.11
2022-10-09T13:56:43.539Z,17.04
2022-10-09T13:59:12.780Z,17.01
2022-10-09T14:01:41.952Z,16.81
2022-10-09T14:04:12.524Z,16.69
2022-10-09T14:06:41.654Z,16.78
2022-10-09T14:09:11.087Z,16.70
2022-10-09T14:11:40.476Z,16.68
2022-10-09T14:14:09.826Z,16.55
2022-10-09T14:16:39.539Z,16.50
2022-10-09T14:19:08.820Z,16.61
2022-10-09T14:21:39.536Z,16.50
2022-10-09T14:24:09.029Z,16.50
2022-10-09T14:26:38.727Z,16.45
2022-10-09T14:29:07.914Z,16.46
2022-10-09T14:31:37.151Z,16.37
2022-10-09T14:34:06.475Z,16.52
2022-10-09T14:36:37.223Z,16.63
2022-10-09T14:39:07.903Z,16.51
2022-10-09T14:41:38.030Z,16.58
2022-10-09T14:44:07.420Z,16.60
2022-10-09T14:46:37.901Z,16.72
2022-10-09T14:49:09.304Z,16.80
2022-10-09T14:51:41.013Z,16.81
2022-10-09T14:54:13.510Z,16.96
2022-10-09T14:56:42.751Z,17.02
2022-10-09T14:59:11.925Z,17.11
2022-10-09T15:01:41.138Z,17.37
2022-10-09T15:04:10.297Z,17.47
2022-10-09T15:06:39.511Z,17.57
2022-10-09T15:09:10.105Z,17.56
2022-10-09T15:11:39.300Z,17.54
2022-10-09T15:14:08.464Z,17.33
2022-10-09T15:16:38.036Z,17.33
2022-10-09T15:19:07.377Z,17.28
2022-10-09T15:21:37.547Z,17.20
2022-10-09T15:24:07.509Z,17.10
2022-10-09T15:26:38.708Z,17.19
2022-10-09T15:29:09.985Z,17.05
2022-10-09T15:31:41.736Z,17.31
2022-10-09T15:34:16.804Z,17.31
2022-10-09T15:36:47.168Z,17.12
2022-10-09T15:39:17.098Z,17.39
2022-10-09T15:41:48.465Z,17.64
2022-10-09T15:44:20.180Z,17.56
2022-10-09T15:46:50.455Z,17.69
2022-10-09T15:49:19.686Z,18.00
2022-10-09T15:51:48.821Z,17.93
2022-10-09T15:54:18.108Z,17.92
2022-10-09T15:56:48.758Z,17.97
2022-10-09T15:59:18.114Z,17.94
2022-10-09T16:01:47.618Z,17.81
2022-10-09T16:04:17.277Z,17.79
2022-10-09T16:06:46.427Z,17.59
2022-10-09T16:09:15.776Z,17.70
2022-10-09T16:11:44.993Z,17.52
2022-10-09T16:14:15.696Z,17.46
2022-10-09T16:16:44.907Z,17.39
2022-10-09T16:19:14.160Z,17.46
2022-10-09T16:21:43.343Z,17.34
2022-10-09T16:24:12.660Z,17.22
2022-10-09T16:26:41.917Z,17.25
2022-10-09T16:29:11.182Z,17.13
2022-10-09T16:31:41.812Z,17.12
2022-10-09T16:34:11.463Z,17.12
2022-10-09T16:36:40.702Z,16.94
2022-10-09T16:39:09.986Z,17.08
2022-10-09T16:41:41.941Z,16.93
2022-10-09T16:44:16.978Z,16.99
2022-10-09T16:46:47.875Z,17.06
2022-10-09T16:49:21.425Z,16.97
2022-10-09T16:51:53.609Z,16.91
2022-10-09T16:54:22.889Z,16.98
2022-10-09T16:56:52.298Z,16.82
2022-10-09T16:59:21.618Z,16.81
2022-10-09T17:01:53.350Z,16.93
2022-10-09T17:04:23.234Z,16.68
2022-10-09T17:06:53.340Z,16.69
2022-10-09T17:09:22.945Z,16.65
2022-10-09T17:11:52.117Z,16.73
2022-10-09T17:14:21.254Z,16.59
2022-10-09T17:16:52.018Z,16.73
2022-10-09T17:19:21.397Z,16.72
2022-10-09T17:21:50.596Z,16.70
2022-10-09T17:24:20.412Z,16.58
2022-10-09T17:26:49.614Z,16.70
2022-10-09T17:29:18.813Z,16.74
2022-10-09T17:31:48.170Z,16.74
2022-10-09T17:34:19.102Z,16.65
2022-10-09T17:36:48.318Z,16.75
2022-10-09T17:39:19.303Z,16.73
2022-10-09T17:41:49.959Z,16.66
2022-10-09T17:44:20.178Z,16.72
2022-10-09T17:46:49.371Z,16.77
2022-10-09T17:49:19.902Z,16.70
2022-10-09T17:51:49.161Z,16.62
2022-10-09T17:54:18.478Z,16.48
2022-10-09T17:56:47.961Z,16.40
2022-10-09T17:59:17.185Z,16.28
2022-10-09T18:01:47.510Z,15.59
2022-10-09T18:04:17.647Z,15.66
2022-10-09T18:06:48.618Z,15.55
2022-10-09T18:09:18.632Z,15.63
2022-10-09T18:11:49.118Z,15.59
2022-10-09T18:14:18.443Z,15.46
2022-10-09T18:16:48.503Z,15.09
2022-10-09T18:19:20.104Z,15.13
2022-10-09T18:21:52.244Z,15.08
2022-10-09T18:24:21.565Z,15.03
2022-10-09T18:26:50.872Z,14.74
2022-10-09T18:29:20.578Z,14.69
2022-10-09T18:31:51.760Z,14.36
2022-10-09T18:34:21.034Z,14.14
2022-10-09T18:36:52.381Z,13.92
2022-10-09T18:39:22.141Z,13.84
2022-10-09T18:41:51.339Z,13.78
2022-10-09T18:44:24.490Z,13.61
2022-10-09T18:46:59.023Z,13.35
2022-10-09T18:49:32.105Z,13.21
2022-10-09T18:52:04.869Z,13.07
2022-10-09T18:54:34.641Z,13.07
2022-10-09T18:57:05.098Z,12.89
2022-10-09T18:59:36.631Z,13.02
2022-10-09T19:02:06.374Z,13.09
2022-10-09T19:04:35.688Z,13.06
2022-10-09T19:07:07.879Z,13.19
2022-10-09T19:09:38.275Z,13.20
2022-10-09T19:12:07.908Z,13.28
2022-10-09T19:14:37.781Z,13.32
2022-10-09T19:17:08.065Z,13.24
2022-10-09T19:19:37.660Z,13.25
2022-10-09T19:22:14.077Z,13.24
2022-10-09T19:24:44.942Z,13.28
2022-10-09T19:27:15.110Z,13.16
2022-10-09T19:29:44.799Z,13.30
2022-10-09T19:32:14.178Z,13.32
2022-10-09T19:34:44.463Z,13.27
2022-10-09T19:37:15.634Z,13.23
2022-10-09T19:39:49.128Z,13.14
2022-10-09T19:42:20.789Z,13.12
2022-10-09T19:44:50.295Z,13.13
2022-10-09T19:47:21.599Z,13.13
2022-10-09T19:49:51.240Z,13.17
2022-10-09T19:52:23.549Z,13.02
2022-10-09T19:54:53.421Z,13.07
2022-10-09T19:57:22.886Z,12.94
2022-10-09T19:59:52.338Z,13.03
2022-10-09T20:02:22.036Z,12.99
2022-10-09T20:04:51.563Z,12.78
2022-10-09T20:07:22.183Z,12.96
2022-10-09T20:09:51.857Z,12.95
2022-10-09T20:12:21.351Z,12.87
2022-10-09T20:14:50.747Z,12.80
2022-10-09T20:17:20.968Z,12.69
2022-10-09T20:19:50.575Z,12.64
2022-10-09T20:22:21.616Z,12.48
2022-10-09T20:24:54.414Z,12.55
2022-10-09T20:27:24.030Z,12.51
2022-10-09T20:29:54.865Z,12.42
2022-10-09T20:32:25.103Z,12.31
2022-10-09T20:34:54.950Z,12.30
2022-10-09T20:37:25.654Z,12.28
2022-10-09T20:39:55.299Z,12.18
2022-10-09T20:42:24.570Z,12.22
2022-10-09T20:44:54.197Z,12.05
2022-10-09T20:47:23.456Z,12.14
2022-10-09T20:49:54.110Z,11.90
2022-10-09T20:52:24.880Z,11.90
2022-10-09T20:54:54.230Z,12.02
2022-10-09T20:57:23.533Z,11.95
2022-10-09T20:59:53.054Z,11.89
2022-10-09T21:02:22.525Z,11.82
2022-10-09T21:04:51.886Z,11.77
2022-10-09T21:07:21.152Z,11.76
2022-10-09T21:09:51.764Z,11.69
2022-10-09T21:12:20.981Z,11.71
2022-10-09T21:14:50.286Z,11.75
2022-10-09T21:17:19.538Z,11.65
2022-10-09T21:19:50.857Z,11.60
2022-10-09T21:22:20.186Z,11.64
2022-10-09T21:24:50.893Z,11.36
2022-10-09T21:27:20.192Z,11.41
2022-10-09T21:29:49.639Z,11.48
2022-10-09T21:32:18.863Z,11.38
2022-10-09T21:34:48.323Z,11.37
2022-10-09T21:37:22.060Z,11.23
2022-10-09T21:39:53.460Z,11.16
2022-10-09T21:42:22.597Z,11.24
2022-10-09T21:44:51.757Z,11.23
2022-10-09T21:47:20.891Z,11.19
2022-10-09T21:49:50.071Z,11.01
2022-10-09T21:52:20.543Z,11.14
2022-10-09T21:54:49.702Z,11.11
2022-10-09T21:57:20.247Z,11.04
2022-10-09T21:59:49.553Z,11.00
2022-10-09T22:02:18.768Z,10.93
2022-10-09T22:04:48.373Z,10.95
2022-10-09T22:07:17.513Z,10.83
2022-10-09T22:09:47.080Z,10.84
2022-10-09T22:12:16.309Z,10.90
2022-10-09T22:14:46.954Z,10.85
2022-10-09T22:17:16.714Z,10.71
2022-10-09T22:19:46.992Z,10.72
2022-10-09T22:22:16.883Z,10.50
2022-10-09T22:24:46.225Z,10.70
2022-10-09T22:27:15.394Z,10.61
2022-10-09T22:29:46.050Z,10.53
2022-10-09T22:32:15.315Z,10.59
2022-10-09T22:34:44.968Z,10.55
2022-10-09T22:37:14.128Z,10.57
2022-10-09T22:39:43.322Z,10.54
2022-10-09T22:42:12.612Z,10.50
2022-10-09T22:44:42.058Z,10.54
2022-10-09T22:47:13.202Z,10.43
2022-10-09T22:49:42.403Z,10.25
2022-10-09T22:52:11.700Z,10.42
2022-10-09T22:54:40.979Z,10.42
2022-10-09T22:57:10.300Z,10.48
2022-10-09T22:59:39.436Z,10.51
2022-10-09T23:02:09.118Z,10.46
2022-10-09T23:04:39.835Z,10.41
2022-10-09T23:07:09.047Z,10.56
2022-10-09T23:09:38.248Z,10.47
2022-10-09T23:12:07.487Z,10.53
2022-10-09T23:14:36.681Z,10.49
2022-10-09T23:17:05.850Z,10.48
2022-10-09T23:19:35.147Z,10.42
2022-10-09T23:22:05.714Z,10.39
2022-10-09T23:24:34.935Z,10.48
2022-10-09T23:27:04.078Z,10.46
2022-10-09T23:29:33.190Z,10.41
2022-10-09T23:32:02.315Z,10.31
2022-10-09T23:34:31.556Z,10.40
2022-10-09T23:37:00.845Z,10.39
2022-10-09T23:39:31.393Z,10.35
2022-10-09T23:42:00.551Z,10.04
2022-10-09T23:44:29.673Z,10.30
2022-10-09T23:46:58.839Z,10.30
2022-10-09T23:49:28.048Z,10.25
2022-10-09T23:51:57.155Z,10.25
2022-10-09T23:54:26.377Z,10.21
2022-10-09T23:56:56.901Z,10.24
2022-10-09T23:59:26.215Z,10.12
